Terminal Aerodrome Forecast
Issued by NWS Boston, MA

Home | Current Version | Previous Version | Text Only | Print | Product List | Glossary On
Versions: 1 2 3 4 5 6 7 8 9 10 11 12 13 14 15 16 17
000
FTUS41 KBOX 242320
TAFORH
TAF
KORH 242320Z 2500/2524 33016G25KT P6SM SKC
     FM250500 32010KT P6SM SKC
     FM251400 30006KT P6SM FEW150
     FM251900 24005KT P6SM SCT110
     FM252200 20006KT P6SM BKN100=

USA.gov is the U.S. government's official web portal to all federal, state and local government web resources and services.